createdAt,value
2017-05-18T00:00:17.957Z,1004.32
2017-05-18T00:00:44.067Z,1004.31
2017-05-18T00:01:10.168Z,1004.3
2017-05-18T00:01:36.287Z,1004.31
2017-05-18T00:02:02.391Z,1004.33
2017-05-18T00:02:28.553Z,1004.29
2017-05-18T00:02:54.692Z,1004.28
2017-05-18T00:03:20.846Z,1004.27
2017-05-18T00:03:47.037Z,1004.29
2017-05-18T00:04:13.201Z,1004.28
2017-05-18T00:04:39.309Z,1004.29
2017-05-18T00:05:05.424Z,1004.24
2017-05-18T00:05:31.559Z,1004.25
2017-05-18T00:05:57.670Z,1004.25
2017-05-18T00:06:23.811Z,1004.26
2017-05-18T00:06:49.937Z,1004.24
2017-05-18T00:07:16.091Z,1004.23
2017-05-18T00:07:42.168Z,1004.24
2017-05-18T00:08:08.286Z,1004.21
2017-05-18T00:08:34.448Z,1004.23
2017-05-18T00:09:00.590Z,1004.21
2017-05-18T00:09:26.732Z,1004.21
2017-05-18T00:09:52.866Z,1004.22
2017-05-18T00:10:19.019Z,1004.18
2017-05-18T00:10:45.150Z,1004.2
2017-05-18T00:11:11.241Z,1004.21
2017-05-18T00:11:37.365Z,1004.21
2017-05-18T00:12:03.472Z,1004.18
2017-05-18T00:12:29.621Z,1004.17
2017-05-18T00:12:55.762Z,1004.21
2017-05-18T00:13:21.873Z,1004.16
2017-05-18T00:13:48.023Z,1004.16
2017-05-18T00:14:14.157Z,1004.2
2017-05-18T00:14:40.302Z,1004.16
2017-05-18T00:15:06.483Z,1004.17
2017-05-18T00:15:32.574Z,1004.18
2017-05-18T00:15:58.702Z,1004.16
2017-05-18T00:16:24.810Z,1004.17
2017-05-18T00:16:50.900Z,1004.18
2017-05-18T00:17:17.003Z,1004.15
2017-05-18T00:17:43.139Z,1004.15
2017-05-18T00:18:09.282Z,1004.13
2017-05-18T00:18:35.406Z,1004.15
2017-05-18T00:19:01.570Z,1004.14
2017-05-18T00:19:27.693Z,1004.15
2017-05-18T00:19:53.838Z,1004.1
2017-05-18T00:20:19.977Z,1004.1
2017-05-18T00:20:46.073Z,1004.1
2017-05-18T00:21:12.203Z,1004.09
2017-05-18T00:21:38.345Z,1004.1
2017-05-18T00:22:04.445Z,1004.08
2017-05-18T00:22:30.581Z,1004.07
2017-05-18T00:22:56.677Z,1004.07
2017-05-18T00:23:22.818Z,1004.08
2017-05-18T00:23:49.012Z,1004.07
2017-05-18T00:24:15.112Z,1004.06
2017-05-18T00:24:41.230Z,1004.06
2017-05-18T00:25:07.369Z,1004.06
2017-05-18T00:25:33.470Z,1004.06
2017-05-18T00:25:59.611Z,1004.06
2017-05-18T00:26:25.767Z,1004.08
2017-05-18T00:26:51.860Z,1004.02
2017-05-18T00:27:17.971Z,1004.07
2017-05-18T00:27:44.098Z,1004.06
2017-05-18T00:28:10.241Z,1004.02
2017-05-18T00:28:36.377Z,1004.04
2017-05-18T00:29:02.562Z,1004.02
2017-05-18T00:29:28.777Z,1004
2017-05-18T00:29:54.908Z,1004.05
2017-05-18T00:30:21.069Z,1004.02
2017-05-18T00:30:47.182Z,1003.98
2017-05-18T00:31:13.285Z,1004.01
2017-05-18T00:31:39.422Z,1003.99
2017-05-18T00:32:05.514Z,1004.03
2017-05-18T00:32:31.675Z,1003.98
2017-05-18T00:32:57.794Z,1004.04
2017-05-18T00:33:23.923Z,1003.98
2017-05-18T00:33:50.121Z,1004
2017-05-18T00:34:16.230Z,1003.97
2017-05-18T00:34:42.359Z,1003.95
2017-05-18T00:35:08.496Z,1003.99
2017-05-18T00:35:34.612Z,1003.98
2017-05-18T00:36:00.737Z,1003.96
2017-05-18T00:36:26.899Z,1003.91
2017-05-18T00:36:52.985Z,1003.93
2017-05-18T00:37:19.102Z,1003.89
2017-05-18T00:37:45.208Z,1003.96
2017-05-18T00:38:11.336Z,1003.97
2017-05-18T00:38:37.472Z,1003.93
2017-05-18T00:39:03.615Z,1003.91
2017-05-18T00:39:29.740Z,1003.91
2017-05-18T00:39:55.850Z,1003.93
2017-05-18T00:40:21.943Z,1003.91
2017-05-18T00:40:48.089Z,1003.89
2017-05-18T00:41:14.233Z,1003.9
2017-05-18T00:41:40.328Z,1003.86
2017-05-18T00:42:06.420Z,1003.89
2017-05-18T00:42:32.585Z,1003.84
2017-05-18T00:42:58.742Z,1003.88
2017-05-18T00:43:24.844Z,1003.86
2017-05-18T00:43:50.970Z,1003.88
2017-05-18T00:44:17.112Z,1003.86
2017-05-18T00:44:43.308Z,1003.88
2017-05-18T00:45:09.433Z,1003.87
2017-05-18T00:45:35.527Z,1003.86
2017-05-18T00:46:01.658Z,1003.85
2017-05-18T00:46:27.761Z,1003.85
2017-05-18T00:46:53.855Z,1003.83
2017-05-18T00:47:19.987Z,1003.86
2017-05-18T00:47:46.153Z,1003.82
2017-05-18T00:48:12.265Z,1003.84
2017-05-18T00:48:38.444Z,1003.82
2017-05-18T00:49:04.566Z,1003.8
2017-05-18T00:49:30.702Z,1003.83
2017-05-18T00:49:56.832Z,1003.79
2017-05-18T00:50:22.971Z,1003.81
2017-05-18T00:50:49.076Z,1003.79
2017-05-18T00:51:15.187Z,1003.79
2017-05-18T00:51:41.300Z,1003.8
2017-05-18T00:52:07.403Z,1003.86
2017-05-18T00:52:33.566Z,1003.86
2017-05-18T00:52:59.737Z,1003.83
2017-05-18T00:53:25.837Z,1003.84
2017-05-18T00:53:52.029Z,1003.8
2017-05-18T00:54:18.178Z,1003.83
2017-05-18T00:54:44.340Z,1003.81
2017-05-18T00:55:10.452Z,1003.83
2017-05-18T00:55:36.554Z,1003.82
2017-05-18T00:56:02.660Z,1003.8
2017-05-18T00:56:28.781Z,1003.84
2017-05-18T00:56:54.926Z,1003.81
2017-05-18T00:57:21.065Z,1003.79
2017-05-18T00:57:47.187Z,1003.84
2017-05-18T00:58:13.347Z,1003.82
2017-05-18T00:58:39.540Z,1003.84
2017-05-18T00:59:05.694Z,1003.83
2017-05-18T00:59:31.787Z,1003.78
2017-05-18T00:59:57.896Z,1003.8
2017-05-18T01:00:23.999Z,1003.8
2017-05-18T01:00:50.091Z,1003.8
2017-05-18T01:01:16.195Z,1003.83
2017-05-18T01:01:42.334Z,1003.82
2017-05-18T01:02:08.443Z,1003.81
2017-05-18T01:02:34.571Z,1003.79
2017-05-18T01:03:00.679Z,1003.81
2017-05-18T01:03:26.798Z,1003.79
2017-05-18T01:03:52.948Z,1003.84
2017-05-18T01:04:19.082Z,1003.86
2017-05-18T01:04:45.204Z,1003.82
2017-05-18T01:05:11.346Z,1003.79
2017-05-18T01:05:37.478Z,1003.79
2017-05-18T01:06:03.609Z,1003.79
2017-05-18T01:06:29.746Z,1003.77
2017-05-18T01:06:55.838Z,1003.79
2017-05-18T01:07:21.957Z,1003.75
2017-05-18T01:07:48.149Z,1003.75
2017-05-18T01:08:14.222Z,1003.78
2017-05-18T01:08:40.387Z,1003.75
2017-05-18T01:09:06.554Z,1003.77
2017-05-18T01:09:32.681Z,1003.77
2017-05-18T01:09:58.774Z,1003.74
2017-05-18T01:10:24.904Z,1003.74
2017-05-18T01:10:51.006Z,1003.77
2017-05-18T01:11:17.109Z,1003.74
2017-05-18T01:11:43.229Z,1003.73
2017-05-18T01:12:09.319Z,1003.76
2017-05-18T01:12:35.459Z,1003.73
2017-05-18T01:13:01.609Z,1003.69
2017-05-18T01:13:27.778Z,1003.72
2017-05-18T01:13:53.913Z,1003.72
2017-05-18T01:14:20.015Z,1003.68
2017-05-18T01:14:46.108Z,1003.7
2017-05-18T01:15:12.214Z,1003.69
2017-05-18T01:15:38.351Z,1003.72
2017-05-18T01:16:04.494Z,1003.7
2017-05-18T01:16:30.597Z,1003.72
2017-05-18T01:16:56.689Z,1003.74
2017-05-18T01:17:22.824Z,1003.68
2017-05-18T01:17:49.026Z,1003.71
2017-05-18T01:18:15.143Z,1003.7
2017-05-18T01:18:41.279Z,1003.71
2017-05-18T01:19:07.441Z,1003.74
2017-05-18T01:19:33.582Z,1003.71
2017-05-18T01:19:59.732Z,1003.71
2017-05-18T01:20:25.920Z,1003.65
2017-05-18T01:20:51.960Z,1003.7
2017-05-18T01:21:18.057Z,1003.68
2017-05-18T01:21:44.192Z,1003.7
2017-05-18T01:22:10.314Z,1003.64
2017-05-18T01:22:36.422Z,1003.66
2017-05-18T01:23:02.559Z,1003.65
2017-05-18T01:23:28.684Z,1003.64
2017-05-18T01:23:54.879Z,1003.66
2017-05-18T01:24:21.023Z,1003.68
2017-05-18T01:24:47.168Z,1003.66
2017-05-18T01:25:13.336Z,1003.66
2017-05-18T01:25:39.426Z,1003.67
2017-05-18T01:26:05.519Z,1003.66
2017-05-18T01:26:31.656Z,1003.61
2017-05-18T01:26:57.783Z,1003.61
2017-05-18T01:27:23.902Z,1003.63
2017-05-18T01:27:50.040Z,1003.62
2017-05-18T01:28:16.185Z,1003.63
2017-05-18T01:28:42.352Z,1003.6
2017-05-18T01:29:08.493Z,1003.63
2017-05-18T01:29:34.685Z,1003.61
2017-05-18T01:30:00.825Z,1003.64
2017-05-18T01:30:26.925Z,1003.63
2017-05-18T01:30:53.017Z,1003.64
2017-05-18T01:31:19.209Z,1003.61
2017-05-18T01:31:45.337Z,1003.66
2017-05-18T01:32:11.456Z,1003.62
2017-05-18T01:32:37.588Z,1003.62
2017-05-18T01:33:03.695Z,1003.63
2017-05-18T01:33:29.817Z,1003.6
2017-05-18T01:33:55.975Z,1003.64
2017-05-18T01:34:22.090Z,1003.62
2017-05-18T01:34:48.224Z,1003.62
2017-05-18T01:35:14.352Z,1003.59
2017-05-18T01:35:40.469Z,1003.6
2017-05-18T01:36:06.573Z,1003.55
2017-05-18T01:36:32.712Z,1003.55
2017-05-18T01:36:58.830Z,1003.57
2017-05-18T01:37:24.931Z,1003.59
2017-05-18T01:37:51.071Z,1003.59
2017-05-18T01:38:17.159Z,1003.54
2017-05-18T01:38:43.285Z,1003.55
2017-05-18T01:39:09.412Z,1003.57
2017-05-18T01:39:35.596Z,1003.58
2017-05-18T01:40:01.732Z,1003.55
2017-05-18T01:40:27.845Z,1003.56
2017-05-18T01:40:53.971Z,1003.54
2017-05-18T01:41:20.107Z,1003.53
2017-05-18T01:41:46.226Z,1003.5
2017-05-18T01:42:12.327Z,1003.54
2017-05-18T01:42:38.436Z,1003.51
2017-05-18T01:43:04.588Z,1003.51
2017-05-18T01:43:30.706Z,1003.55
2017-05-18T01:43:56.874Z,1003.53
2017-05-18T01:44:23.029Z,1003.52
2017-05-18T01:44:49.172Z,1003.5
2017-05-18T01:45:15.303Z,1003.53
2017-05-18T01:45:41.431Z,1003.5
2017-05-18T01:46:07.572Z,1003.52
2017-05-18T01:46:33.728Z,1003.52
2017-05-18T01:46:59.840Z,1003.5
2017-05-18T01:47:25.948Z,1003.5
2017-05-18T01:47:52.047Z,1003.5
2017-05-18T01:48:18.290Z,1003.48
2017-05-18T01:48:44.433Z,1003.5
2017-05-18T01:49:10.580Z,1003.55
2017-05-18T01:49:36.745Z,1003.51
2017-05-18T01:50:02.870Z,1003.52
2017-05-18T01:50:29.003Z,1003.52
2017-05-18T01:50:55.116Z,1003.52
2017-05-18T01:51:21.220Z,1003.5
2017-05-18T01:51:47.386Z,1003.5
2017-05-18T01:52:13.500Z,1003.5
2017-05-18T01:52:39.626Z,1003.51
2017-05-18T01:53:05.759Z,1003.51
2017-05-18T01:53:31.880Z,1003.5
2017-05-18T01:53:58.085Z,1003.5
2017-05-18T01:54:24.199Z,1003.47
2017-05-18T01:54:50.322Z,1003.49
2017-05-18T01:55:16.413Z,1003.46
2017-05-18T01:55:42.523Z,1003.48
2017-05-18T01:56:08.665Z,1003.5
2017-05-18T01:56:34.802Z,1003.5
2017-05-18T01:57:00.899Z,1003.47
2017-05-18T01:57:27.015Z,1003.49
2017-05-18T01:57:53.152Z,1003.45
2017-05-18T01:58:19.282Z,1003.46
2017-05-18T01:58:45.424Z,1003.48
2017-05-18T01:59:11.558Z,1003.5
2017-05-18T01:59:37.687Z,1003.45
2017-05-18T02:00:03.804Z,1003.45
2017-05-18T02:00:29.907Z,1003.45
2017-05-18T02:00:56.044Z,1003.41
2017-05-18T02:01:22.165Z,1003.4
2017-05-18T02:01:48.264Z,1003.4
2017-05-18T02:02:14.357Z,1003.4
2017-05-18T02:02:40.492Z,1003.44
2017-05-18T02:03:06.677Z,1003.43
2017-05-18T02:03:32.770Z,1003.39
2017-05-18T02:03:58.924Z,1003.41
2017-05-18T02:04:25.061Z,1003.42
2017-05-18T02:04:51.177Z,1003.4
2017-05-18T02:05:17.306Z,1003.45
2017-05-18T02:05:43.415Z,1003.43
2017-05-18T02:06:09.507Z,1003.46
2017-05-18T02:06:35.606Z,1003.43
2017-05-18T02:07:01.731Z,1003.45
2017-05-18T02:07:27.841Z,1003.44
2017-05-18T02:07:53.982Z,1003.43
2017-05-18T02:08:20.094Z,1003.44
2017-05-18T02:08:46.249Z,1003.44
2017-05-18T02:09:12.356Z,1003.45
2017-05-18T02:09:38.474Z,1003.41
2017-05-18T02:10:04.650Z,1003.43
2017-05-18T02:10:30.758Z,1003.44
2017-05-18T02:10:56.853Z,1003.43
2017-05-18T02:11:22.994Z,1003.4
2017-05-18T02:11:49.105Z,1003.42
2017-05-18T02:12:15.260Z,1003.42
2017-05-18T02:12:41.435Z,1003.43
2017-05-18T02:13:07.550Z,1003.46
2017-05-18T02:13:33.650Z,1003.41
2017-05-18T02:13:59.782Z,1003.43
2017-05-18T02:14:25.928Z,1003.42
2017-05-18T02:14:52.044Z,1003.42
2017-05-18T02:15:18.157Z,1003.4
2017-05-18T02:15:44.283Z,1003.44
2017-05-18T02:16:10.376Z,1003.39
2017-05-18T02:16:36.485Z,1003.42
2017-05-18T02:17:02.614Z,1003.39
2017-05-18T02:17:28.706Z,1003.41
2017-05-18T02:17:54.859Z,1003.38
2017-05-18T02:18:20.983Z,1003.38
2017-05-18T02:18:47.146Z,1003.39
2017-05-18T02:19:13.302Z,1003.41
2017-05-18T02:19:39.444Z,1003.4
2017-05-18T02:20:05.610Z,1003.38
2017-05-18T02:20:31.709Z,1003.37
2017-05-18T02:20:57.803Z,1003.37
2017-05-18T02:21:23.935Z,1003.34
2017-05-18T02:21:50.072Z,1003.34
2017-05-18T02:22:16.163Z,1003.38
2017-05-18T02:22:42.264Z,1003.37
2017-05-18T02:23:08.454Z,1003.34
2017-05-18T02:23:34.594Z,1003.35
2017-05-18T02:24:00.720Z,1003.38
2017-05-18T02:24:26.836Z,1003.35
2017-05-18T02:24:52.942Z,1003.36
2017-05-18T02:25:19.108Z,1003.34
2017-05-18T02:25:45.225Z,1003.38
2017-05-18T02:26:11.328Z,1003.36
2017-05-18T02:26:37.493Z,1003.32
2017-05-18T02:27:03.586Z,1003.35
2017-05-18T02:27:29.684Z,1003.36
2017-05-18T02:27:55.818Z,1003.36
2017-05-18T02:28:21.915Z,1003.28
2017-05-18T02:28:48.009Z,1003.29
2017-05-18T02:29:14.146Z,1003.34
2017-05-18T02:29:40.302Z,1003.33
2017-05-18T02:30:06.417Z,1003.34
2017-05-18T02:30:32.526Z,1003.33
2017-05-18T02:30:58.653Z,1003.32
2017-05-18T02:31:24.794Z,1003.33
2017-05-18T02:31:50.898Z,1003.3
2017-05-18T02:32:17.063Z,1003.33
2017-05-18T02:32:43.202Z,1003.34
2017-05-18T02:33:09.332Z,1003.34
2017-05-18T02:33:35.467Z,1003.33
2017-05-18T02:34:01.583Z,1003.33
2017-05-18T02:34:27.709Z,1003.33
2017-05-18T02:34:53.807Z,1003.35
2017-05-18T02:35:19.965Z,1003.36
2017-05-18T02:35:46.098Z,1003.36
2017-05-18T02:36:12.189Z,1003.4
2017-05-18T02:36:38.290Z,1003.37
2017-05-18T02:37:04.398Z,1003.43
2017-05-18T02:37:30.489Z,1003.43
2017-05-18T02:37:56.614Z,1003.42
2017-05-18T02:38:22.723Z,1003.44
2017-05-18T02:38:48.819Z,1003.42
2017-05-18T02:39:14.934Z,1003.44
2017-05-18T02:39:41.074Z,1003.44
2017-05-18T02:40:07.225Z,1003.46
2017-05-18T02:40:33.332Z,1003.43
2017-05-18T02:40:59.435Z,1003.44
2017-05-18T02:41:25.602Z,1003.45
2017-05-18T02:41:51.744Z,1003.44
2017-05-18T02:42:17.849Z,1003.5
2017-05-18T02:42:43.985Z,1003.43
2017-05-18T02:43:10.127Z,1003.44
2017-05-18T02:43:36.253Z,1003.46
2017-05-18T02:44:02.390Z,1003.44
2017-05-18T02:44:28.507Z,1003.43
2017-05-18T02:44:54.628Z,1003.49
2017-05-18T02:45:20.794Z,1003.43
2017-05-18T02:45:46.898Z,1003.44
2017-05-18T02:46:13.048Z,1003.45
2017-05-18T02:46:39.140Z,1003.48
2017-05-18T02:47:05.269Z,1003.48
2017-05-18T02:47:31.403Z,1003.47
2017-05-18T02:47:57.521Z,1003.47
2017-05-18T02:48:23.667Z,1003.48
2017-05-18T02:48:49.860Z,1003.47
2017-05-18T02:49:16.007Z,1003.45
2017-05-18T02:49:42.124Z,1003.45
2017-05-18T02:50:08.284Z,1003.47
2017-05-18T02:50:34.382Z,1003.46
2017-05-18T02:51:00.477Z,1003.47
2017-05-18T02:51:26.639Z,1003.46
2017-05-18T02:51:52.735Z,1003.51
2017-05-18T02:52:18.893Z,1003.52
2017-05-18T02:52:45.013Z,1003.49
2017-05-18T02:53:11.131Z,1003.48
2017-05-18T02:53:37.240Z,1003.52
2017-05-18T02:54:03.394Z,1003.53
2017-05-18T02:54:29.557Z,1003.48
2017-05-18T02:54:55.688Z,1003.5
2017-05-18T02:55:21.792Z,1003.52
2017-05-18T02:55:47.907Z,1003.5
2017-05-18T02:56:14.043Z,1003.54
2017-05-18T02:56:40.152Z,1003.53
2017-05-18T02:57:06.273Z,1003.54
2017-05-18T02:57:32.394Z,1003.54
2017-05-18T02:57:58.567Z,1003.55
2017-05-18T02:58:24.696Z,1003.5
2017-05-18T02:58:50.828Z,1003.56
2017-05-18T02:59:16.943Z,1003.55
2017-05-18T02:59:43.073Z,1003.58
2017-05-18T03:00:09.236Z,1003.56
2017-05-18T03:00:35.375Z,1003.59
2017-05-18T03:01:01.459Z,1003.55
2017-05-18T03:01:27.569Z,1003.55
2017-05-18T03:01:53.688Z,1003.55
2017-05-18T03:02:19.786Z,1003.51
2017-05-18T03:02:45.938Z,1003.53
2017-05-18T03:03:12.067Z,1003.53
2017-05-18T03:03:38.260Z,1003.55
2017-05-18T03:04:04.348Z,1003.5
2017-05-18T03:04:30.507Z,1003.54
2017-05-18T03:04:56.669Z,1003.47
2017-05-18T03:05:22.788Z,1003.51
2017-05-18T03:05:48.887Z,1003.5
2017-05-18T03:06:14.996Z,1003.51
2017-05-18T03:06:41.091Z,1003.48
2017-05-18T03:07:07.182Z,1003.51
2017-05-18T03:07:33.321Z,1003.58
2017-05-18T03:07:59.419Z,1003.57
2017-05-18T03:08:25.549Z,1003.51
2017-05-18T03:08:51.670Z,1003.49
2017-05-18T03:09:17.795Z,1003.48
2017-05-18T03:09:43.956Z,1003.53
2017-05-18T03:10:10.078Z,1003.52
2017-05-18T03:10:36.198Z,1003.56
2017-05-18T03:11:02.308Z,1003.51
2017-05-18T03:11:28.404Z,1003.5
2017-05-18T03:11:54.496Z,1003.49
2017-05-18T03:12:20.627Z,1003.51
2017-05-18T03:12:46.756Z,1003.54
2017-05-18T03:13:12.899Z,1003.56
2017-05-18T03:13:39.028Z,1003.51
2017-05-18T03:14:05.161Z,1003.53
2017-05-18T03:14:31.275Z,1003.5
2017-05-18T03:14:57.403Z,1003.51
2017-05-18T03:15:23.567Z,1003.52
2017-05-18T03:15:49.660Z,1003.52
2017-05-18T03:16:15.780Z,1003.52
2017-05-18T03:16:41.888Z,1003.51
2017-05-18T03:17:08.009Z,1003.51
2017-05-18T03:17:34.124Z,1003.54
2017-05-18T03:18:00.294Z,1003.55
2017-05-18T03:18:26.421Z,1003.56
2017-05-18T03:18:52.511Z,1003.56
2017-05-18T03:19:18.643Z,1003.54
2017-05-18T03:19:44.793Z,1003.54
2017-05-18T03:20:10.901Z,1003.55
2017-05-18T03:20:36.997Z,1003.52
2017-05-18T03:21:03.141Z,1003.56
2017-05-18T03:21:29.305Z,1003.54
2017-05-18T03:21:55.402Z,1003.6
2017-05-18T03:22:21.494Z,1003.54
2017-05-18T03:22:47.647Z,1003.56
2017-05-18T03:23:13.780Z,1003.51
2017-05-18T03:23:39.874Z,1003.52
2017-05-18T03:24:06.025Z,1003.52
2017-05-18T03:24:32.132Z,1003.57
2017-05-18T03:24:58.255Z,1003.55
2017-05-18T03:25:24.385Z,1003.59
2017-05-18T03:25:50.472Z,1003.58
2017-05-18T03:26:16.578Z,1003.57
2017-05-18T03:26:42.707Z,1003.55
2017-05-18T03:27:08.799Z,1003.57
2017-05-18T03:27:34.929Z,1003.54
2017-05-18T03:28:01.092Z,1003.57
2017-05-18T03:28:27.181Z,1003.57
2017-05-18T03:28:53.311Z,1003.58
2017-05-18T03:29:19.474Z,1003.52
2017-05-18T03:29:45.591Z,1003.55
2017-05-18T03:30:11.714Z,1003.54
2017-05-18T03:30:37.814Z,1003.52
2017-05-18T03:31:03.945Z,1003.55
2017-05-18T03:31:30.053Z,1003.56
2017-05-18T03:31:56.142Z,1003.53
2017-05-18T03:32:22.269Z,1003.55
2017-05-18T03:32:48.378Z,1003.57
2017-05-18T03:33:14.548Z,1003.53
2017-05-18T03:33:40.670Z,1003.57
2017-05-18T03:34:06.833Z,1003.56
2017-05-18T03:34:32.979Z,1003.53
2017-05-18T03:34:59.093Z,1003.57
2017-05-18T03:35:25.231Z,1003.56
2017-05-18T03:35:51.328Z,1003.58
2017-05-18T03:36:17.434Z,1003.61
2017-05-18T03:36:43.550Z,1003.59
2017-05-18T03:37:09.649Z,1003.59
2017-05-18T03:37:35.813Z,1003.6
2017-05-18T03:38:01.907Z,1003.64
2017-05-18T03:38:28.033Z,1003.62
2017-05-18T03:38:54.165Z,1003.59
2017-05-18T03:39:20.310Z,1003.59
2017-05-18T03:39:46.402Z,1003.59
2017-05-18T03:40:12.508Z,1003.6
2017-05-18T03:40:38.609Z,1003.63
2017-05-18T03:41:04.698Z,1003.67
2017-05-18T03:41:30.802Z,1003.67
2017-05-18T03:41:56.919Z,1003.66
2017-05-18T03:42:23.029Z,1003.61
2017-05-18T03:42:49.156Z,1003.64
2017-05-18T03:43:15.248Z,1003.68
2017-05-18T03:43:41.384Z,1003.63
2017-05-18T03:44:07.540Z,1003.62
2017-05-18T03:44:33.634Z,1003.67
2017-05-18T03:44:59.783Z,1003.64
2017-05-18T03:45:25.946Z,1003.62
2017-05-18T03:45:52.033Z,1003.67
2017-05-18T03:46:18.125Z,1003.65
2017-05-18T03:46:44.235Z,1003.64
2017-05-18T03:47:10.376Z,1003.63
2017-05-18T03:47:36.508Z,1003.68
2017-05-18T03:48:02.650Z,1003.65
2017-05-18T03:48:28.836Z,1003.66
2017-05-18T03:48:54.999Z,1003.67
2017-05-18T03:49:21.114Z,1003.65
2017-05-18T03:49:47.239Z,1003.66
2017-05-18T03:50:13.375Z,1003.66
2017-05-18T03:50:39.493Z,1003.7
2017-05-18T03:51:05.590Z,1003.64
2017-05-18T03:51:31.700Z,1003.71
2017-05-18T03:51:57.819Z,1003.66
2017-05-18T03:52:23.938Z,1003.64
2017-05-18T03:52:50.041Z,1003.67
2017-05-18T03:53:16.167Z,1003.68
2017-05-18T03:53:42.302Z,1003.65
2017-05-18T03:54:08.447Z,1003.66
2017-05-18T03:54:34.664Z,1003.67
2017-05-18T03:55:00.772Z,1003.66
2017-05-18T03:55:26.884Z,1003.63
2017-05-18T03:55:52.976Z,1003.67
2017-05-18T03:56:19.131Z,1003.76
2017-05-18T03:56:45.199Z,1003.71
2017-05-18T03:57:11.316Z,1003.74
2017-05-18T03:57:37.452Z,1003.72
2017-05-18T03:58:03.667Z,1003.7
2017-05-18T03:58:29.810Z,1003.71
2017-05-18T03:58:55.967Z,1003.74
2017-05-18T03:59:22.104Z,1003.72
2017-05-18T03:59:48.219Z,1003.72
2017-05-18T04:00:14.341Z,1003.74
2017-05-18T04:00:40.453Z,1003.72
2017-05-18T04:01:06.621Z,1003.7
2017-05-18T04:01:32.741Z,1003.73
2017-05-18T04:01:58.905Z,1003.7
2017-05-18T04:02:25.000Z,1003.67
2017-05-18T04:02:51.168Z,1003.72
2017-05-18T04:03:17.335Z,1003.68
2017-05-18T04:03:43.461Z,1003.71
2017-05-18T04:04:09.593Z,1003.7
2017-05-18T04:04:35.732Z,1003.73
2017-05-18T04:05:01.882Z,1003.7
2017-05-18T04:05:28.016Z,1003.72
2017-05-18T04:05:54.110Z,1003.71
2017-05-18T04:06:20.202Z,1003.69
2017-05-18T04:06:46.340Z,1003.71
2017-05-18T04:07:12.493Z,1003.73
2017-05-18T04:07:38.611Z,1003.69
2017-05-18T04:08:04.771Z,1003.73
2017-05-18T04:08:30.901Z,1003.73
2017-05-18T04:08:56.993Z,1003.76
2017-05-18T04:09:23.099Z,1003.72
2017-05-18T04:09:49.234Z,1003.71
2017-05-18T04:10:15.343Z,1003.7
2017-05-18T04:10:41.441Z,1003.7
2017-05-18T04:11:07.536Z,1003.72
2017-05-18T04:11:33.645Z,1003.68
2017-05-18T04:11:59.779Z,1003.73
2017-05-18T04:12:25.941Z,1003.73
2017-05-18T04:12:52.098Z,1003.73
2017-05-18T04:13:18.236Z,1003.72
2017-05-18T04:13:44.372Z,1003.7
2017-05-18T04:14:10.499Z,1003.71
2017-05-18T04:14:36.635Z,1003.72
2017-05-18T04:15:02.804Z,1003.73
2017-05-18T04:15:28.899Z,1003.74
2017-05-18T04:15:55.040Z,1003.76
2017-05-18T04:16:21.145Z,1003.77
2017-05-18T04:16:47.245Z,1003.76
2017-05-18T04:17:13.362Z,1003.74
2017-05-18T04:17:39.462Z,1003.8
2017-05-18T04:18:05.625Z,1003.79
2017-05-18T04:18:31.720Z,1003.79
2017-05-18T04:18:57.892Z,1003.81
2017-05-18T04:19:24.081Z,1003.78
2017-05-18T04:19:50.254Z,1003.8
2017-05-18T04:20:16.349Z,1003.82
2017-05-18T04:20:42.452Z,1003.8
2017-05-18T04:21:08.552Z,1003.84
2017-05-18T04:21:34.660Z,1003.84
2017-05-18T04:22:00.831Z,1003.85
2017-05-18T04:22:26.930Z,1003.87
2017-05-18T04:22:53.095Z,1003.83
2017-05-18T04:23:19.217Z,1003.85
2017-05-18T04:23:45.329Z,1003.84
2017-05-18T04:24:11.437Z,1003.86
2017-05-18T04:24:37.592Z,1003.88
2017-05-18T04:25:03.711Z,1003.84
2017-05-18T04:25:29.843Z,1003.89
2017-05-18T04:25:55.944Z,1003.88
2017-05-18T04:26:22.047Z,1003.86
2017-05-18T04:26:48.171Z,1003.87
2017-05-18T04:27:14.265Z,1003.83
2017-05-18T04:27:40.410Z,1003.88
2017-05-18T04:28:06.560Z,1003.86
2017-05-18T04:28:32.652Z,1003.87
2017-05-18T04:28:58.786Z,1003.9
2017-05-18T04:29:24.943Z,1003.89
2017-05-18T04:29:51.036Z,1003.91
2017-05-18T04:30:17.142Z,1003.87
2017-05-18T04:30:43.252Z,1003.81
2017-05-18T04:31:09.364Z,1003.84
2017-05-18T04:31:35.465Z,1003.88
2017-05-18T04:32:01.584Z,1003.85
2017-05-18T04:32:27.747Z,1003.9
2017-05-18T04:32:53.873Z,1003.87
2017-05-18T04:33:19.990Z,1003.88
2017-05-18T04:33:46.177Z,1003.92
2017-05-18T04:34:12.341Z,1003.93
2017-05-18T04:34:38.482Z,1003.93
2017-05-18T04:35:04.609Z,1003.93
2017-05-18T04:35:30.744Z,1003.93
2017-05-18T04:35:56.838Z,1003.92
2017-05-18T04:36:22.938Z,1003.95
2017-05-18T04:36:49.102Z,1003.95
2017-05-18T04:37:15.249Z,1003.95
2017-05-18T04:37:41.359Z,1003.95
2017-05-18T04:38:07.496Z,1003.96
2017-05-18T04:38:33.625Z,1003.94
2017-05-18T04:38:59.759Z,1003.94
2017-05-18T04:39:25.850Z,1003.99
2017-05-18T04:39:51.949Z,1003.98
2017-05-18T04:40:18.082Z,1004.03
2017-05-18T04:40:44.178Z,1003.99
2017-05-18T04:41:10.324Z,1003.98
2017-05-18T04:41:36.463Z,1003.98
2017-05-18T04:42:02.579Z,1004
2017-05-18T04:42:28.721Z,1004.02
2017-05-18T04:42:54.857Z,1004.04
2017-05-18T04:43:20.985Z,1004.04
2017-05-18T04:43:47.137Z,1004.04
2017-05-18T04:44:13.234Z,1004.06
2017-05-18T04:44:39.398Z,1004.03
2017-05-18T04:45:05.533Z,1004.06
2017-05-18T04:45:31.635Z,1004.03
2017-05-18T04:45:57.776Z,1004.08
2017-05-18T04:46:23.868Z,1004.07
2017-05-18T04:46:49.967Z,1004.04
2017-05-18T04:47:16.076Z,1004.04
2017-05-18T04:47:42.171Z,1004.01
2017-05-18T04:48:08.313Z,1004.04
2017-05-18T04:48:34.447Z,1004.05
2017-05-18T04:49:00.628Z,1004.07
2017-05-18T04:49:26.764Z,1004.12
2017-05-18T04:49:52.880Z,1004.05
2017-05-18T04:50:18.979Z,1004.07
2017-05-18T04:50:45.115Z,1004.04
2017-05-18T04:51:11.254Z,1004.05
2017-05-18T04:51:37.317Z,1004.07
2017-05-18T04:52:03.456Z,1004.07
2017-05-18T04:52:29.554Z,1004.06
2017-05-18T04:52:55.671Z,1004.11
2017-05-18T04:53:21.805Z,1004.11
2017-05-18T04:53:48.084Z,1004.1
2017-05-18T04:54:14.214Z,1004.06
2017-05-18T04:54:40.310Z,1004.08
2017-05-18T04:55:06.450Z,1004.09
2017-05-18T04:55:32.562Z,1004.09
2017-05-18T04:55:58.713Z,1004.09
2017-05-18T04:56:24.833Z,1004.08
2017-05-18T04:56:50.941Z,1004.1
2017-05-18T04:57:17.043Z,1004.12
2017-05-18T04:57:43.158Z,1004.11
2017-05-18T04:58:09.292Z,1004.15
2017-05-18T04:58:35.403Z,1004.1
2017-05-18T04:59:01.514Z,1004.12
2017-05-18T04:59:27.645Z,1004.13
2017-05-18T04:59:53.795Z,1004.11
2017-05-18T05:00:19.928Z,1004.08
2017-05-18T05:00:46.056Z,1004.11
2017-05-18T05:01:12.149Z,1004.14
2017-05-18T05:01:38.329Z,1004.13
2017-05-18T05:02:04.462Z,1004.06
2017-05-18T05:02:30.551Z,1004.08
2017-05-18T05:02:56.674Z,1004.1
2017-05-18T05:03:22.869Z,1004.11
2017-05-18T05:03:48.986Z,1004.14
2017-05-18T05:04:15.110Z,1004.08
2017-05-18T05:04:41.216Z,1004.12
2017-05-18T05:05:07.364Z,1004.11
2017-05-18T05:05:33.528Z,1004.12
2017-05-18T05:05:59.640Z,1004.09
2017-05-18T05:06:25.741Z,1004.1
2017-05-18T05:06:51.876Z,1004.09
2017-05-18T05:07:17.968Z,1004.09
2017-05-18T05:07:44.092Z,1004.1
2017-05-18T05:08:10.199Z,1004.12
2017-05-18T05:08:36.293Z,1004.13
2017-05-18T05:09:02.436Z,1004.13
2017-05-18T05:09:28.547Z,1004.15
2017-05-18T05:09:54.673Z,1004.17
2017-05-18T05:10:20.792Z,1004.1
2017-05-18T05:10:46.929Z,1004.2
2017-05-18T05:11:13.052Z,1004.12
2017-05-18T05:11:39.188Z,1004.19
2017-05-18T05:12:05.340Z,1004.17
2017-05-18T05:12:31.457Z,1004.14
2017-05-18T05:12:57.621Z,1004.18
2017-05-18T05:13:23.746Z,1004.14
2017-05-18T05:13:49.864Z,1004.18
2017-05-18T05:14:15.973Z,1004.18
2017-05-18T05:14:42.102Z,1004.16
2017-05-18T05:15:08.220Z,1004.18
2017-05-18T05:15:34.426Z,1004.2
2017-05-18T05:16:00.534Z,1004.22
2017-05-18T05:16:26.629Z,1004.18
2017-05-18T05:16:52.728Z,1004.2
2017-05-18T05:17:18.845Z,1004.21